Time;durP1;ratioP1;P1;durP2;ratioP2;P2;SDS_P1;SDS_P2;PMS_P1;PMS_P2;Temp;Humidity;BMP_temperature;BMP_pressure;BME280_temperature;BME280_humidity;BME280_pressure;Samples;Min_cycle;Max_cycle;Signal;HPM_P1;HPM_P2
2022/03/23 00:02:26;;;;;;;32.90;15.52;;;;;;;10.67;39.26;102936.16;4960339;28;114293;-61
2022/03/23 00:04:54;;;;;;;35.67;15.95;;;;;;;10.64;39.24;102938.84;4951112;28;124161;-61
2022/03/23 00:07:21;;;;;;;31.10;14.98;;;;;;;10.62;39.68;102939.75;4957265;28;124432;-60
2022/03/23 00:09:49;;;;;;;30.70;14.70;;;;;;;10.57;39.43;102937.16;4962838;28;115144;-60
2022/03/23 00:12:24;;;;;;;31.55;14.98;;;;;;;10.53;39.41;102943.41;4958369;28;115403;-61
2022/03/23 00:14:52;;;;;;;28.05;14.48;;;;;;;10.48;39.67;102942.56;4961396;28;124042;-60
2022/03/23 00:17:20;;;;;;;29.23;14.88;;;;;;;10.43;39.63;102939.06;4953234;28;123810;-60
2022/03/23 00:19:47;;;;;;;30.00;15.55;;;;;;;10.38;39.89;102938.22;4956411;28;115250;-61
2022/03/23 00:22:15;;;;;;;31.88;15.98;;;;;;;10.35;39.56;102946.22;4960868;28;114395;-60
2022/03/23 00:24:42;;;;;;;33.75;15.65;;;;;;;10.30;39.87;102933.91;4952916;28;124182;-60
2022/03/23 00:27:09;;;;;;;34.47;15.90;;;;;;;10.28;40.02;102940.97;4952028;28;124066;-60
2022/03/23 00:29:36;;;;;;;31.48;14.48;;;;;;;10.24;39.73;102939.22;4954885;28;113904;-60
2022/03/23 00:32:04;;;;;;;30.35;15.07;;;;;;;10.19;40.02;102941.06;4966919;28;115370;-60
2022/03/23 00:34:32;;;;;;;32.05;15.13;;;;;;;10.12;39.78;102939.34;4953786;28;123768;-60
2022/03/23 00:37:00;;;;;;;32.58;14.82;;;;;;;10.08;39.96;102942.94;4956929;28;122687;-60
2022/03/23 00:39:27;;;;;;;30.88;14.45;;;;;;;10.03;40.23;102939.44;4960175;28;114285;-60
2022/03/23 00:41:57;;;;;;;37.20;16.02;;;;;;;10.00;40.07;102939.47;4962796;28;113551;-60
2022/03/23 00:44:29;;;;;;;29.73;14.73;;;;;;;9.94;40.41;102936.00;4963897;28;124392;-60
2022/03/23 00:46:56;;;;;;;29.67;14.32;;;;;;;9.88;40.11;102932.50;4960377;28;124605;-61
2022/03/23 00:49:23;;;;;;;33.10;14.70;;;;;;;9.83;40.09;102932.56;4954590;28;113126;-61
2022/03/23 00:51:53;;;;;;;29.17;15.00;;;;;;;9.80;40.46;102943.16;4955987;28;112860;-61
2022/03/23 00:54:21;;;;;;;32.08;15.18;;;;;;;9.75;40.37;102935.25;4956040;28;123725;-61
2022/03/23 00:56:51;;;;;;;29.40;14.82;;;;;;;9.73;40.47;102933.50;4956099;28;123308;-61
2022/03/23 00:59:19;;;;;;;31.25;15.13;;;;;;;9.69;40.29;102934.44;4955593;28;114784;-61
2022/03/23 01:01:47;;;;;;;34.63;15.30;;;;;;;9.66;40.56;102945.03;4962720;28;115065;-60
2022/03/23 01:04:17;;;;;;;33.28;15.05;;;;;;;9.62;40.51;102938.00;4950482;28;124590;-60
2022/03/23 01:06:44;;;;;;;40.03;16.33;;;;;;;9.60;40.48;102935.34;4961166;28;123918;-61
2022/03/23 01:09:12;;;;;;;30.33;15.00;;;;;;;9.58;40.72;102936.28;4964190;28;113406;-60
2022/03/23 01:11:40;;;;;;;31.73;14.95;;;;;;;9.54;40.92;102941.56;4960725;28;113890;-60
2022/03/23 01:14:07;;;;;;;38.63;15.32;;;;;;;9.50;41.21;102938.97;4958043;28;124909;-60
2022/03/23 01:16:36;;;;;;;30.73;14.77;;;;;;;9.46;41.07;102938.13;4946809;28;122988;-61
2022/03/23 01:19:03;;;;;;;33.95;15.88;;;;;;;9.42;41.26;102933.75;4953675;28;113248;-61
2022/03/23 01:21:32;;;;;;;32.08;14.93;;;;;;;9.40;41.13;102927.59;4951441;28;113595;-61
2022/03/23 01:23:59;;;;;;;33.42;15.10;;;;;;;9.37;41.20;102927.59;4956350;28;124649;-59
2022/03/23 01:26:26;;;;;;;33.17;15.65;;;;;;;9.33;41.50;102932.00;4957327;28;124740;-60
2022/03/23 01:28:54;;;;;;;30.65;15.13;;;;;;;9.29;41.45;102925.00;4962428;28;113419;-59
2022/03/23 01:31:21;;;;;;;32.60;14.85;;;;;;;9.25;41.29;102931.19;4960060;28;115195;-59
2022/03/23 01:33:48;;;;;;;30.67;14.85;;;;;;;9.22;41.42;102930.34;4963687;28;124049;-59
2022/03/23 01:36:15;;;;;;;30.65;15.73;;;;;;;9.19;41.59;102922.41;4963417;28;123154;-59
2022/03/23 01:38:45;;;;;;;33.97;15.07;;;;;;;9.16;41.72;102928.59;4960206;28;113146;-60
2022/03/23 01:41:14;;;;;;;30.20;14.32;;;;;;;9.13;41.75;102924.19;4960724;28;113461;-59
2022/03/23 01:43:42;;;;;;;31.98;15.85;;;;;;;9.10;41.66;102923.34;4960770;28;124023;-59
2022/03/23 01:46:09;;;;;;;31.40;14.80;;;;;;;9.05;41.62;102931.28;4963672;28;123809;-59
2022/03/23 01:48:36;;;;;;;34.03;14.32;;;;;;;9.02;41.96;102923.38;4955830;28;116149;-59
2022/03/23 01:51:03;;;;;;;33.42;15.48;;;;;;;8.99;41.79;102914.59;4960641;28;114128;-59
2022/03/23 01:53:30;;;;;;;34.22;15.07;;;;;;;8.97;41.75;102914.59;4957555;28;124038;-60
2022/03/23 01:55:59;;;;;;;35.60;15.70;;;;;;;8.95;41.75;102919.03;4965225;28;122745;-60
2022/03/23 01:58:26;;;;;;;30.95;15.43;;;;;;;8.92;42.00;102908.47;4961693;28;114185;-60
2022/03/23 02:00:54;;;;;;;32.88;15.85;;;;;;;8.90;42.24;102915.50;4961277;28;114274;-60
2022/03/23 02:03:25;;;;;;;31.05;15.55;;;;;;;8.87;42.24;102910.22;4956767;28;123379;-60
2022/03/23 02:05:53;;;;;;;32.30;15.52;;;;;;;8.85;42.04;102917.28;4965531;28;123374;-60
2022/03/23 02:08:20;;;;;;;30.25;14.43;;;;;;;8.83;42.14;102908.50;4964908;28;113223;-60
2022/03/23 02:10:51;;;;;;;33.30;15.07;;;;;;;8.80;42.15;102903.22;4961951;28;113291;-60
2022/03/23 02:13:27;;;;;;;35.63;14.52;;;;;;;8.77;42.12;102905.00;4947397;28;123219;-60
2022/03/23 02:15:55;;;;;;;32.35;15.23;;;;;;;8.73;42.24;102903.25;4964964;28;122883;-60
2022/03/23 02:18:23;;;;;;;38.03;14.80;;;;;;;8.70;42.38;102903.28;4960406;28;113642;-60
2022/03/23 02:20:53;;;;;;;37.08;16.27;;;;;;;8.68;42.26;102899.78;4961994;28;113206;-61
2022/03/23 02:23:20;;;;;;;32.42;15.10;;;;;;;8.64;42.31;102903.28;4963522;28;123988;-61
2022/03/23 02:25:49;;;;;;;36.72;15.45;;;;;;;8.60;42.73;102906.81;4956806;28;123513;-61
2022/03/23 02:28:18;;;;;;;34.72;14.95;;;;;;;8.56;42.51;102894.53;4959802;28;114423;-61
2022/03/23 02:30:45;;;;;;;33.67;15.48;;;;;;;8.54;42.55;102901.56;4963093;28;114750;-61
2022/03/23 02:33:18;;;;;;;32.70;14.20;;;;;;;8.51;42.92;102906.84;4966473;28;124562;-61
2022/03/23 02:35:48;;;;;;;38.40;15.90;;;;;;;8.48;42.54;102907.75;4961132;28;123984;-61
2022/03/23 02:38:16;;;;;;;36.13;15.23;;;;;;;8.44;42.63;102906.00;4958690;28;115047;-61
2022/03/23 02:40:44;;;;;;;36.95;15.60;;;;;;;8.42;42.35;102904.25;4968264;28;114950;-60
2022/03/23 02:43:11;;;;;;;31.05;15.45;;;;;;;8.38;42.59;102896.31;4961285;28;124899;-60
2022/03/23 02:45:39;;;;;;;32.83;15.18;;;;;;;8.36;42.72;102902.47;4955449;28;123956;-60
2022/03/23 02:48:07;;;;;;;32.85;14.38;;;;;;;8.33;42.85;102898.06;4968197;28;114734;-60
2022/03/23 02:50:34;;;;;;;34.17;14.93;;;;;;;8.29;42.93;102895.47;4962433;28;114641;-60
2022/03/23 03:01:54;;;;;;;34.97;15.40;;;;;;;8.09;42.85;102898.13;4953767;28;113763;-60
2022/03/23 03:04:23;;;;;;;34.17;14.65;;;;;;;8.05;42.73;102912.22;4958295;28;125059;-60
2022/03/23 03:06:50;;;;;;;31.55;14.60;;;;;;;8.02;43.06;102906.94;4961101;28;124635;-60
2022/03/23 03:09:19;;;;;;;34.97;15.88;;;;;;;8.01;43.17;102915.75;4955423;28;114570;-60
2022/03/23 03:11:47;;;;;;;32.00;15.25;;;;;;;7.99;43.25;102913.97;4963021;28;114716;-60
2022/03/23 03:14:14;;;;;;;31.60;16.13;;;;;;;7.98;42.84;102906.91;4966589;28;123951;-60
2022/03/23 03:16:41;;;;;;;35.28;15.80;;;;;;;7.96;43.38;102911.31;4968450;28;123732;-60
2022/03/23 03:19:10;;;;;;;31.92;15.30;;;;;;;7.95;43.39;102912.22;4958206;28;115589;-60
2022/03/23 03:21:38;;;;;;;34.15;15.23;;;;;;;7.93;43.28;102908.72;4964111;28;113912;-61
2022/03/23 03:24:06;;;;;;;28.65;14.95;;;;;;;7.92;43.49;102906.94;4961101;28;124351;-60
2022/03/23 03:26:33;;;;;;;34.78;14.68;;;;;;;7.92;43.49;102909.56;4957164;28;124295;-61
2022/03/23 03:29:02;;;;;;;32.28;14.63;;;;;;;7.89;43.46;102917.50;4955204;28;115130;-59
2022/03/23 03:31:29;;;;;;;36.97;15.75;;;;;;;7.87;43.34;102919.25;4954453;28;115209;-59
2022/03/23 03:33:56;;;;;;;32.92;15.02;;;;;;;7.87;43.62;102919.25;4955627;28;123752;-60
2022/03/23 03:36:24;;;;;;;33.33;15.77;;;;;;;7.85;43.44;102914.84;4959117;28;124837;-60
2022/03/23 03:38:51;;;;;;;33.80;15.55;;;;;;;7.84;43.70;102915.75;4966557;28;114245;-60
2022/03/23 03:41:19;;;;;;;35.60;15.55;;;;;;;7.84;43.72;102921.91;4960791;28;114436;-60
2022/03/23 03:43:48;;;;;;;31.80;14.85;;;;;;;7.82;43.85;102926.28;4965748;28;124384;-60
2022/03/23 03:46:15;;;;;;;32.17;14.35;;;;;;;7.81;43.62;102924.53;4962530;28;124491;-61
2022/03/23 03:48:43;;;;;;;31.65;15.00;;;;;;;7.79;43.82;102923.66;4956158;28;114187;-61
2022/03/23 03:51:10;;;;;;;31.65;16.42;;;;;;;7.77;43.82;102922.78;4955348;28;113969;-60
2022/03/23 03:53:37;;;;;;;33.75;15.07;;;;;;;7.75;43.47;102928.03;4962211;28;124542;-61
2022/03/23 03:56:08;;;;;;;35.25;15.10;;;;;;;7.75;43.62;102932.44;4962276;28;123724;-60
2022/03/23 03:58:37;;;;;;;29.95;14.50;;;;;;;7.73;43.67;102921.00;4962118;28;114753;-60
2022/03/23 04:01:06;;;;;;;34.67;14.68;;;;;;;7.71;43.93;102928.06;4961177;28;113976;-60
2022/03/23 04:03:34;;;;;;;36.50;16.45;;;;;;;7.70;43.72;102931.56;4966671;28;124061;-60
2022/03/23 04:06:03;;;;;;;35.63;15.88;;;;;;;7.68;43.81;102938.59;4958973;28;124535;-60
2022/03/23 04:08:30;;;;;;;33.63;14.93;;;;;;;7.66;43.66;102935.94;4959803;28;114316;-60
2022/03/23 04:10:57;;;;;;;31.92;14.73;;;;;;;7.65;43.59;102936.84;4954338;28;114205;-60
2022/03/23 04:13:25;;;;;;;32.60;14.85;;;;;;;7.63;43.69;102935.06;4955590;28;124835;-61
2022/03/23 04:15:52;;;;;;;36.58;15.40;;;;;;;7.62;43.78;102935.94;4954843;28;123561;-60
2022/03/23 04:18:19;;;;;;;32.47;14.48;;;;;;;7.59;43.87;102940.34;4964900;28;115254;-60
2022/03/23 04:20:46;;;;;;;33.15;14.80;;;;;;;7.56;43.86;102935.06;4958769;28;115083;-61
2022/03/23 04:23:14;;;;;;;30.10;14.40;;;;;;;7.55;43.96;102933.31;4955161;28;123938;-60
2022/03/23 04:25:41;;;;;;;32.03;15.23;;;;;;;7.53;44.11;102935.03;4962485;28;124658;-60
2022/03/23 04:28:08;;;;;;;31.10;14.60;;;;;;;7.53;43.93;102929.78;4958841;28;114374;-60
2022/03/23 04:30:35;;;;;;;32.03;15.68;;;;;;;7.55;44.17;102935.97;4958806;28;114085;-60
2022/03/23 04:33:02;;;;;;;35.53;15.55;;;;;;;7.57;44.58;102935.94;4961017;28;123373;-60
2022/03/23 04:35:29;;;;;;;34.17;15.30;;;;;;;7.57;44.47;102936.84;4964625;28;124634;-60
2022/03/23 04:37:57;;;;;;;30.27;15.35;;;;;;;7.57;44.17;102947.38;4952102;28;114138;-60
2022/03/23 04:40:24;;;;;;;32.00;15.32;;;;;;;7.58;44.20;102943.84;4959021;28;114458;-61
2022/03/23 04:42:52;;;;;;;36.47;16.48;;;;;;;7.56;44.30;102940.34;4955574;28;123809;-60
2022/03/23 04:45:19;;;;;;;32.55;14.45;;;;;;;7.56;44.20;102950.00;4955070;28;124022;-60
2022/03/23 04:47:46;;;;;;;32.70;15.38;;;;;;;7.54;44.48;102952.63;4959933;28;113057;-60
2022/03/23 04:50:16;;;;;;;29.33;14.05;;;;;;;7.50;44.42;102953.50;4957102;28;113946;-61
2022/03/23 04:52:45;;;;;;;32.55;14.23;;;;;;;7.45;43.98;102957.03;4960584;28;124125;-60
2022/03/23 04:55:14;;;;;;;31.73;14.38;;;;;;;7.35;44.29;102956.13;4955769;28;123951;-60
2022/03/23 04:57:42;;;;;;;29.95;14.32;;;;;;;7.25;44.35;102949.91;4960147;28;114521;-61
2022/03/23 05:00:13;;;;;;;33.35;14.63;;;;;;;7.18;44.40;102954.31;4943628;28;113991;-61
2022/03/23 05:02:45;;;;;;;29.08;12.93;;;;;;;7.11;44.53;102947.25;4962742;28;124628;-61
2022/03/23 05:05:14;;;;;;;30.52;14.40;;;;;;;7.07;44.54;102955.16;4965586;28;123889;-61
2022/03/23 05:07:42;;;;;;;27.80;13.82;;;;;;;7.02;44.68;102952.50;4950639;28;115125;-61
2022/03/23 05:10:12;;;;;;;30.52;14.43;;;;;;;6.98;44.51;102951.59;4964197;28;115089;-61
2022/03/23 05:12:42;;;;;;;29.58;13.10;;;;;;;6.94;44.73;102959.50;4961361;28;124337;-61
2022/03/23 05:15:10;;;;;;;29.90;14.25;;;;;;;6.92;44.90;102955.97;4961006;28;123974;-61
2022/03/23 05:17:38;;;;;;;32.20;14.25;;;;;;;6.88;44.69;102965.63;4956341;28;114486;-61
2022/03/23 05:20:07;;;;;;;30.60;13.90;;;;;;;6.87;44.81;102968.22;4960638;28;113989;-60
2022/03/23 05:22:37;;;;;;;34.72;14.07;;;;;;;6.85;44.78;102959.44;4960240;28;124652;-61
2022/03/23 05:25:05;;;;;;;33.88;14.38;;;;;;;6.82;44.67;102961.19;4962948;28;123955;-60
2022/03/23 05:27:34;;;;;;;29.10;13.73;;;;;;;6.83;45.02;102962.94;4955279;28;114291;-60
2022/03/23 05:30:04;;;;;;;31.52;14.32;;;;;;;6.80;44.87;102968.22;4958677;28;114315;-60
2022/03/23 05:32:31;;;;;;;30.98;13.68;;;;;;;6.79;44.98;102966.44;4960831;28;124419;-60
2022/03/23 05:34:58;;;;;;;32.50;13.60;;;;;;;6.76;45.12;102963.81;4954763;28;124244;-60
2022/03/23 05:37:26;;;;;;;33.15;14.35;;;;;;;6.74;45.02;102962.94;4963228;28;114629;-61
2022/03/23 05:39:53;;;;;;;31.08;14.20;;;;;;;6.73;45.10;102966.41;4961485;28;114212;-61
2022/03/23 05:42:20;;;;;;;28.20;12.70;;;;;;;6.72;45.24;102969.91;4958796;28;123949;-61
2022/03/23 05:44:47;;;;;;;34.75;15.13;;;;;;;6.71;45.09;102968.16;4956565;28;124153;-60
2022/03/23 05:47:14;;;;;;;32.67;13.50;;;;;;;6.73;44.99;102976.09;4967219;28;113614;-61
2022/03/23 05:49:42;;;;;;;30.67;14.05;;;;;;;6.72;45.11;102966.41;4961187;28;114197;-61
2022/03/23 05:52:09;;;;;;;33.30;14.65;;;;;;;6.71;45.11;102977.81;4962277;28;124644;-61
2022/03/23 05:54:36;;;;;;;33.50;13.73;;;;;;;6.70;45.19;102976.91;4963978;28;124763;-61
2022/03/23 05:57:03;;;;;;;33.55;14.48;;;;;;;6.68;45.04;102972.53;4961530;28;118594;-61
2022/03/23 05:59:31;;;;;;;32.72;14.35;;;;;;;6.67;45.34;102976.94;4961821;28;115278;-62
2022/03/23 06:01:59;;;;;;;35.92;14.05;;;;;;;6.65;45.46;102970.78;4963361;28;124148;-61
2022/03/23 06:04:27;;;;;;;31.50;14.13;;;;;;;6.65;45.36;102973.41;4960287;28;123721;-62
2022/03/23 06:06:54;;;;;;;31.90;14.30;;;;;;;6.65;45.29;102977.75;4955823;28;114681;-61
2022/03/23 06:09:21;;;;;;;32.92;14.68;;;;;;;6.64;45.55;102976.91;4950930;28;113837;-61
2022/03/23 06:11:49;;;;;;;37.50;14.98;;;;;;;6.64;45.58;102976.91;4950804;28;124350;-61
2022/03/23 06:14:16;;;;;;;34.40;14.57;;;;;;;6.65;45.64;102981.31;4958888;28;123769;-61
2022/03/23 06:16:43;;;;;;;34.95;14.93;;;;;;;6.65;45.83;102983.94;4969032;28;114661;-61
2022/03/23 06:19:12;;;;;;;34.78;14.48;;;;;;;6.63;45.54;102988.31;4959817;28;114378;-61
2022/03/23 06:21:40;;;;;;;32.38;14.68;;;;;;;6.61;45.96;102987.41;4959180;28;124928;-61
2022/03/23 06:24:08;;;;;;;35.47;15.25;;;;;;;6.61;46.04;102990.03;4960769;28;123980;-61
2022/03/23 06:26:36;;;;;;;33.78;13.73;;;;;;;6.63;45.99;102996.22;4958781;28;114645;-60
2022/03/23 06:29:03;;;;;;;30.80;14.05;;;;;;;6.64;46.14;102992.69;4957883;28;114415;-60
2022/03/23 06:31:36;;;;;;;32.67;14.45;;;;;;;6.70;46.22;103008.53;4956230;28;123333;-60
2022/03/23 06:34:04;;;;;;;33.45;15.02;;;;;;;6.75;46.09;103006.81;4966303;28;126858;-61
2022/03/23 06:36:31;;;;;;;36.22;15.65;;;;;;;6.83;46.40;103005.09;4962463;28;114290;-60
2022/03/23 06:38:59;;;;;;;33.28;14.82;;;;;;;6.95;46.50;103000.75;4955914;28;113864;-61
2022/03/23 06:41:26;;;;;;;31.83;13.98;;;;;;;7.07;46.40;103008.72;4954629;28;123944;-61
2022/03/23 06:43:53;;;;;;;30.45;14.48;;;;;;;7.20;46.91;103002.63;4961377;28;123729;-61
2022/03/23 06:46:20;;;;;;;35.17;14.13;;;;;;;7.37;47.01;103007.09;4959687;28;115849;-61
2022/03/23 06:48:48;;;;;;;34.97;14.93;;;;;;;7.54;46.73;103000.09;4958348;28;114800;-61
2022/03/23 06:51:16;;;;;;;29.30;14.40;;;;;;;7.67;46.97;103008.06;4954020;28;124068;-62
2022/03/23 06:53:43;;;;;;;34.67;14.93;;;;;;;7.82;46.91;103009.81;4959029;28;125346;-62
2022/03/23 06:56:11;;;;;;;32.17;14.48;;;;;;;7.95;46.92;103007.22;4959449;28;114127;-62
2022/03/23 06:58:38;;;;;;;34.38;15.13;;;;;;;8.14;47.39;103012.50;4951349;28;114985;-61
2022/03/23 07:01:05;;;;;;;29.70;14.35;;;;;;;8.34;47.41;103009.84;4958636;28;124018;-61
2022/03/23 07:03:33;;;;;;;33.03;14.50;;;;;;;8.56;47.34;103018.66;4953703;28;124091;-61
2022/03/23 07:06:00;;;;;;;34.75;14.18;;;;;;;8.77;47.21;103026.53;4961621;28;114117;-61
2022/03/23 07:11:13;;;;;;;;;;;;;;;9.21;46.84;103015.81;4956244;28;124012;-61
2022/03/23 07:13:40;;;;;;;37.58;14.55;;;;;;;9.44;46.90;103016.59;4965936;28;123766;-61
2022/03/23 07:16:07;;;;;;;36.28;15.38;;;;;;;9.67;46.76;103015.59;4952423;28;114014;-61
2022/03/23 07:18:35;;;;;;;32.05;15.10;;;;;;;9.87;46.68;103018.06;4955825;28;113034;-61
2022/03/23 07:21:04;;;;;;;29.45;14.60;;;;;;;10.09;46.67;103018.81;4948393;28;123855;-61
2022/03/23 07:23:34;;;;;;;30.98;15.02;;;;;;;10.32;46.81;103022.19;4952309;28;123259;-61
2022/03/23 07:26:02;;;;;;;33.70;15.05;;;;;;;10.56;46.37;103030.78;4949241;28;114629;-61
2022/03/23 07:28:31;;;;;;;27.92;14.70;;;;;;;10.78;46.19;103025.28;4950883;28;113045;-62
2022/03/23 07:31:00;;;;;;;27.60;14.45;;;;;;;10.98;45.84;103033.88;4954057;28;123939;-61
2022/03/23 07:33:28;;;;;;;29.15;15.52;;;;;;;11.17;45.75;103033.66;4950979;28;123805;-61
2022/03/23 07:35:56;;;;;;;29.88;15.48;;;;;;;11.33;45.57;103032.56;4957007;28;115141;-61
2022/03/23 07:38:23;;;;;;;31.27;15.23;;;;;;;11.45;45.16;103029.75;4953353;28;114846;-61
2022/03/23 07:40:51;;;;;;;30.17;14.77;;;;;;;11.54;45.32;103028.75;4955246;28;124277;-62
2022/03/23 07:43:19;;;;;;;27.88;15.00;;;;;;;11.67;45.16;103030.31;4955036;28;124199;-62
2022/03/23 07:45:47;;;;;;;28.00;15.18;;;;;;;11.81;44.78;103038.09;4950686;28;114964;-61
2022/03/23 07:48:18;;;;;;;29.98;15.20;;;;;;;11.92;44.70;103034.44;4954086;28;113814;-61
2022/03/23 07:50:45;;;;;;;29.70;14.65;;;;;;;12.04;44.82;103034.25;4950050;28;124173;-61
2022/03/23 07:53:12;;;;;;;32.88;15.55;;;;;;;12.16;44.94;103034.03;4953060;28;123910;-62
2022/03/23 07:55:40;;;;;;;35.05;16.45;;;;;;;12.30;44.43;103035.56;4949541;28;114768;-62
2022/03/23 07:58:07;;;;;;;29.95;15.07;;;;;;;12.44;44.48;103033.56;4935145;28;113059;-62
2022/03/23 08:00:36;;;;;;;30.02;15.70;;;;;;;12.61;44.57;103041.25;4947838;28;123996;-62
2022/03/23 08:03:04;;;;;;;27.67;16.38;;;;;;;12.76;44.06;103040.09;4951581;28;124723;-60
2022/03/23 08:05:32;;;;;;;30.27;15.30;;;;;;;12.89;43.70;103038.94;4952021;28;114173;-59
2022/03/23 08:07:59;;;;;;;32.70;15.82;;;;;;;12.98;43.60;103035.22;4949855;28;114054;-60
2022/03/23 08:10:27;;;;;;;30.25;15.70;;;;;;;13.07;43.70;103047.44;4949368;28;123835;-61
2022/03/23 08:12:54;;;;;;;26.05;15.23;;;;;;;13.14;43.51;103041.09;4950347;28;122782;-61
2022/03/23 08:15:24;;;;;;;28.85;15.63;;;;;;;13.25;43.25;103039.09;4949358;28;114355;-61
2022/03/23 08:17:51;;;;;;;29.38;14.90;;;;;;;13.34;43.24;103038.94;4952165;28;115069;-60
2022/03/23 08:20:35;;;;;;;27.85;15.52;;;;;;;13.44;43.21;103045.81;4948481;28;124082;-61
2022/03/23 08:23:08;;;;;;;29.50;15.30;;;;;;;13.56;43.10;103038.47;4948648;28;123794;-61
2022/03/23 08:25:38;;;;;;;30.88;16.08;;;;;;;13.66;43.01;103034.69;4950399;28;115512;-61
2022/03/23 08:28:05;;;;;;;27.05;15.73;;;;;;;13.76;42.97;103046.88;4949042;28;115161;-62
2022/03/23 08:30:33;;;;;;;30.50;15.88;;;;;;;13.94;43.20;103042.06;4950404;28;124040;-62
2022/03/23 08:33:02;;;;;;;31.13;16.10;;;;;;;14.10;43.07;103040.75;4952313;28;122855;-62
2022/03/23 08:35:35;;;;;;;29.95;16.38;;;;;;;14.27;42.83;103042.13;4954594;28;113901;-62
2022/03/23 08:38:03;;;;;;;28.60;15.38;;;;;;;14.43;42.79;103042.59;4959869;28;113923;-62
2022/03/23 08:40:31;;;;;;;29.17;16.13;;;;;;;14.59;42.75;103039.50;4961681;28;123229;-62
2022/03/23 08:42:58;;;;;;;27.27;15.88;;;;;;;14.75;42.50;103040.00;4957591;28;124237;-62
2022/03/23 08:45:26;;;;;;;28.20;15.20;;;;;;;14.92;41.80;103036.00;4962293;28;114107;-62
2022/03/23 08:47:54;;;;;;;27.60;15.35;;;;;;;15.05;41.66;103044.50;4959630;28;114217;-62
2022/03/23 08:50:21;;;;;;;29.33;14.88;;;;;;;15.18;41.55;103040.56;4970155;28;124839;-62
2022/03/23 08:52:48;;;;;;;26.17;14.57;;;;;;;15.32;41.31;103035.69;4973883;28;123921;-62
2022/03/23 08:55:19;;;;;;;29.60;16.42;;;;;;;15.46;41.27;103037.06;4972766;28;114078;-62
2022/03/23 08:57:47;;;;;;;31.10;16.23;;;;;;;15.59;40.92;103043.78;4971704;28;113697;-62
2022/03/23 09:00:15;;;;;;;33.75;16.25;;;;;;;15.75;40.76;103039.75;4972098;28;123721;-60
2022/03/23 09:02:43;;;;;;;29.38;15.43;;;;;;;15.88;40.26;103042.00;4957459;28;123777;-61
2022/03/23 09:05:12;;;;;;;26.60;15.48;;;;;;;15.99;40.50;103039.88;4953700;28;114209;-61
2022/03/23 09:07:41;;;;;;;30.52;16.00;;;;;;;16.13;40.35;103042.97;4969785;28;114065;-62
2022/03/23 09:10:11;;;;;;;26.92;15.10;;;;;;;16.31;39.81;103048.63;4949303;28;123902;-61
2022/03/23 09:12:39;;;;;;;30.08;15.43;;;;;;;16.41;39.40;103044.72;4951690;28;124626;-61
2022/03/23 09:15:09;;;;;;;25.80;15.63;;;;;;;16.48;39.16;103040.91;4951164;28;115959;-61
2022/03/23 09:17:37;;;;;;;25.80;15.40;;;;;;;16.59;39.11;103047.69;4953692;28;115744;-61
2022/03/23 09:20:05;;;;;;;26.80;15.13;;;;;;;16.69;38.97;103046.44;4953772;28;123810;-61
2022/03/23 09:22:34;;;;;;;26.38;15.38;;;;;;;16.83;39.18;103041.47;4951043;28;124456;-61
2022/03/23 09:25:08;;;;;;;28.00;15.27;;;;;;;17.00;38.70;103042.69;4950406;28;114234;-61
2022/03/23 09:27:38;;;;;;;26.83;15.00;;;;;;;17.14;38.36;103040.38;4952400;28;114485;-61
2022/03/23 09:30:07;;;;;;;24.52;15.32;;;;;;;17.25;38.50;103038.16;4950486;28;123907;-61
2022/03/23 09:32:34;;;;;;;26.20;15.07;;;;;;;17.42;38.60;103036.63;4951674;28;123802;-61
2022/03/23 09:35:02;;;;;;;27.77;15.63;;;;;;;17.56;38.13;103031.59;4951341;28;114076;-62
2022/03/23 09:37:47;;;;;;;27.48;15.35;;;;;;;17.70;37.62;103039.06;4951228;28;114821;-62
2022/03/23 09:40:30;;;;;;;25.75;15.02;;;;;;;17.78;37.32;103033.41;4949850;28;123797;-62
2022/03/23 09:43:09;;;;;;;27.47;15.20;;;;;;;17.89;37.48;103033.88;4951208;28;124247;-62
2022/03/23 09:45:46;;;;;;;25.77;14.25;;;;;;;18.01;36.94;103028.03;4958277;28;115275;-62
2022/03/23 09:48:16;;;;;;;24.95;14.60;;;;;;;18.12;36.96;103034.72;4970424;28;114548;-62
2022/03/23 09:50:46;;;;;;;25.17;15.60;;;;;;;18.22;36.58;103036.97;4971288;28;124388;-62
2022/03/23 09:53:13;;;;;;;27.02;15.07;;;;;;;18.34;36.52;103030.19;4959663;28;123745;-62
2022/03/23 09:55:43;;;;;;;28.65;14.52;;;;;;;18.46;36.33;103029.69;4960689;28;114263;-62
2022/03/23 09:58:10;;;;;;;25.73;15.45;;;;;;;18.57;36.18;103031.00;4964065;28;114183;-62
2022/03/23 10:00:40;;;;;;;30.95;16.45;;;;;;;18.65;36.16;103034.25;4964838;28;123821;-61
2022/03/23 10:03:14;;;;;;;30.52;16.83;;;;;;;18.75;36.30;103029.34;4961942;28;124778;-62
2022/03/23 10:06:06;;;;;;;28.17;16.77;;;;;;;18.85;36.24;103028.91;4972170;28;115997;-61
2022/03/23 10:09:14;;;;;;;30.55;16.17;;;;;;;18.98;36.10;103036.38;4970414;28;115087;-61
2022/03/23 10:12:09;;;;;;;30.17;17.27;;;;;;;19.03;35.64;103034.38;4957431;28;124419;-62
2022/03/23 10:15:15;;;;;;;28.52;16.15;;;;;;;19.09;35.81;103027.84;4958020;28;123683;-62
2022/03/23 10:18:17;;;;;;;26.40;16.05;;;;;;;19.16;35.65;103035.53;4950416;28;114382;-61
2022/03/23 10:20:45;;;;;;;27.88;16.45;;;;;;;19.23;35.33;103037.00;4967317;28;113571;-61
2022/03/23 10:23:12;;;;;;;26.98;16.52;;;;;;;19.31;35.44;103027.69;4952013;28;123181;-61
2022/03/23 10:25:40;;;;;;;27.20;16.23;;;;;;;19.41;35.22;103024.50;4950553;28;123908;-61
2022/03/23 10:28:16;;;;;;;29.27;16.77;;;;;;;19.53;34.81;103023.03;4951028;28;114945;-61
2022/03/23 10:30:45;;;;;;;26.67;16.30;;;;;;;19.65;34.55;103026.97;4950304;28;114292;-61
2022/03/23 10:33:20;;;;;;;28.17;16.30;;;;;;;19.76;33.90;103023.75;4951201;28;123093;-61
2022/03/23 10:35:47;;;;;;;27.25;16.02;;;;;;;19.87;34.31;103023.25;4951083;28;125463;-61
2022/03/23 10:38:16;;;;;;;29.92;16.23;;;;;;;19.99;33.89;103020.81;4950422;28;114450;-61
2022/03/23 10:40:45;;;;;;;28.95;15.95;;;;;;;20.12;33.42;103020.22;4951478;28;114863;-61
2022/03/23 10:43:18;;;;;;;24.83;15.40;;;;;;;20.20;32.94;103018.00;4951315;28;124067;-61
2022/03/23 10:45:45;;;;;;;26.90;15.23;;;;;;;20.28;32.60;103021.16;4953094;28;124187;-61
2022/03/23 10:48:15;;;;;;;26.08;16.02;;;;;;;20.36;32.27;103015.38;4950937;28;114054;-61
2022/03/23 10:50:57;;;;;;;25.55;15.60;;;;;;;20.43;32.03;103014.97;4950915;28;114099;-63
2022/03/23 10:53:34;;;;;;;26.23;15.02;;;;;;;20.53;31.80;103009.09;4951393;28;122819;-62
2022/03/23 10:56:02;;;;;;;27.00;15.68;;;;;;;20.61;31.42;103013.19;4952470;28;124545;-61
2022/03/23 10:58:30;;;;;;;24.55;15.20;;;;;;;20.67;31.33;103014.69;4952300;28;116118;-61
2022/03/23 11:01:06;;;;;;;24.63;14.68;;;;;;;20.74;31.18;103008.00;4950457;28;114831;-62
2022/03/23 11:03:40;;;;;;;29.38;15.73;;;;;;;20.83;31.02;103008.47;4953280;28;98513;-61
2022/03/23 11:06:10;;;;;;;26.48;15.55;;;;;;;20.89;31.17;103002.72;4949881;28;123878;-61
2022/03/23 11:08:38;;;;;;;27.27;14.93;;;;;;;21.00;30.94;103008.41;4949908;28;115134;-63
2022/03/23 11:16:49;;;;;;;24.88;15.85;;;;;;;21.22;30.58;103007.22;4956920;28;123796;-61
2022/03/23 11:19:20;;;;;;;26.80;15.65;;;;;;;21.33;30.66;102999.41;4949051;28;114673;-61
2022/03/23 11:22:11;;;;;;;24.48;15.27;;;;;;;21.45;30.83;103004.13;4959567;28;114987;-62
2022/03/23 11:24:47;;;;;;;23.33;13.93;;;;;;;21.58;30.14;102994.38;4957821;28;124499;-62
2022/03/23 11:27:19;;;;;;;26.30;15.80;;;;;;;21.67;29.69;102998.38;4953801;28;124840;-61
2022/03/23 11:29:48;;;;;;;28.33;15.75;;;;;;;21.71;29.31;102999.06;4951733;28;114385;-63
2022/03/23 11:32:29;;;;;;;25.08;15.20;;;;;;;21.75;29.17;102989.84;4951670;28;114126;-63
2022/03/23 11:35:00;;;;;;;28.38;14.75;;;;;;;21.83;28.91;102995.69;4949217;28;123986;-63